Time;durP1;ratioP1;P1;durP2;ratioP2;P2;SDS_P1;SDS_P2;PMS_P1;PMS_P2;Temp;Humidity;BMP_temperature;BMP_pressure;BME280_temperature;BME280_humidity;BME280_pressure;Samples;Min_cycle;Max_cycle;Signal;HPM_P1;HPM_P2
2024/01/22 00:02:10;;;;;;;4.80;3.07;;;3.50;99.90;;;;;;5074436;28;20183;-82
2024/01/22 00:04:35;;;;;;;4.90;2.90;;;3.50;99.90;;;;;;5074215;28;20225;-82
2024/01/22 00:07:01;;;;;;;7.30;3.30;;;3.50;99.90;;;;;;5072940;28;20169;-82
2024/01/22 00:09:26;;;;;;;3.67;3.00;;;3.50;99.90;;;;;;5074035;28;20268;-81
2024/01/22 00:11:52;;;;;;;7.83;3.00;;;3.60;99.90;;;;;;5072311;28;20552;-82
2024/01/22 00:14:17;;;;;;;5.80;3.43;;;3.60;99.90;;;;;;5072966;28;20172;-82
2024/01/22 00:16:43;;;;;;;5.27;3.40;;;3.60;99.90;;;;;;5074209;28;20180;-82
2024/01/22 00:19:09;;;;;;;5.53;3.00;;;3.60;99.90;;;;;;5072027;28;20178;-82
2024/01/22 00:21:34;;;;;;;5.00;3.33;;;3.60;99.90;;;;;;5073538;28;20266;-82
2024/01/22 00:24:00;;;;;;;5.17;3.40;;;3.50;99.90;;;;;;5073998;28;20212;-82
2024/01/22 00:26:25;;;;;;;5.00;2.87;;;3.50;99.90;;;;;;5073054;28;20173;-82
2024/01/22 00:28:51;;;;;;;6.00;3.07;;;3.50;99.90;;;;;;5073666;28;20555;-81
2024/01/22 00:31:17;;;;;;;5.40;3.47;;;3.50;99.90;;;;;;5073303;28;20177;-82
2024/01/22 00:33:43;;;;;;;10.90;3.10;;;3.50;99.90;;;;;;5073816;28;20240;-82
2024/01/22 00:36:13;;;;;;;5.47;3.13;;;3.40;99.90;;;;;;5073949;28;20173;-83
2024/01/22 00:38:40;;;;;;;3.03;2.63;;;3.50;99.90;;;;;;5072420;28;20177;-82
2024/01/22 00:41:05;;;;;;;3.77;2.60;;;3.50;99.90;;;;;;5072691;28;20225;-82
2024/01/22 00:43:31;;;;;;;4.70;3.00;;;3.50;99.90;;;;;;5072407;28;20207;-82
2024/01/22 00:45:57;;;;;;;5.30;3.23;;;3.40;99.90;;;;;;5073601;28;20188;-82
2024/01/22 00:48:23;;;;;;;7.17;3.00;;;3.50;99.90;;;;;;5072181;28;20172;-82
2024/01/22 00:50:49;;;;;;;3.23;2.40;;;3.50;99.90;;;;;;5071476;28;20197;-82
2024/01/22 00:53:14;;;;;;;4.53;2.67;;;3.50;99.90;;;;;;5072093;28;20206;-82
2024/01/22 00:55:40;;;;;;;4.10;2.90;;;3.60;99.90;;;;;;5072831;28;20645;-82
2024/01/22 00:58:06;;;;;;;4.07;3.00;;;3.60;99.90;;;;;;5073221;28;20188;-82
2024/01/22 01:00:31;;;;;;;5.33;3.27;;;3.60;99.90;;;;;;5071206;28;20208;-81
2024/01/22 01:02:57;;;;;;;4.63;3.00;;;3.60;99.90;;;;;;5073030;28;20203;-82
2024/01/22 01:05:22;;;;;;;5.10;3.07;;;3.50;99.90;;;;;;5071682;28;20661;-82
2024/01/22 01:07:48;;;;;;;4.20;2.77;;;3.50;99.90;;;;;;5072930;28;20173;-81
2024/01/22 01:10:14;;;;;;;3.50;2.70;;;3.60;99.90;;;;;;5072020;28;20599;-81
2024/01/22 01:12:39;;;;;;;6.53;3.40;;;3.70;99.90;;;;;;5072835;28;20182;-82
2024/01/22 01:15:06;;;;;;;4.70;2.40;;;3.60;99.90;;;;;;5071613;28;20180;-81
2024/01/22 01:17:32;;;;;;;4.37;2.93;;;3.70;99.90;;;;;;5071542;28;20177;-82
2024/01/22 01:19:57;;;;;;;4.07;3.03;;;3.80;99.90;;;;;;5054605;28;20204;-82
2024/01/22 01:22:23;;;;;;;4.53;2.90;;;3.70;99.90;;;;;;5070940;28;20672;-82
2024/01/22 01:24:48;;;;;;;3.90;2.90;;;3.70;99.90;;;;;;5072414;28;20176;-82
2024/01/22 01:27:17;;;;;;;3.83;2.87;;;3.70;99.90;;;;;;5071321;28;20180;-81
2024/01/22 01:29:43;;;;;;;5.10;3.07;;;3.60;99.90;;;;;;5072137;28;20197;-81
2024/01/22 01:32:09;;;;;;;4.47;2.90;;;3.60;99.90;;;;;;5072021;28;20227;-82
2024/01/22 01:34:34;;;;;;;4.17;3.27;;;3.50;99.90;;;;;;5072362;28;20609;-82
2024/01/22 01:37:00;;;;;;;4.53;3.10;;;3.50;99.90;;;;;;5072356;28;20251;-82
2024/01/22 01:39:25;;;;;;;6.07;2.90;;;3.50;99.90;;;;;;5071910;28;20200;-81
2024/01/22 01:41:51;;;;;;;3.80;2.60;;;3.60;99.90;;;;;;5071583;28;20200;-82
2024/01/22 01:44:16;;;;;;;4.10;2.73;;;3.60;99.90;;;;;;5071002;28;20209;-82
2024/01/22 01:46:42;;;;;;;4.83;2.93;;;3.60;99.90;;;;;;5071080;28;20627;-82
2024/01/22 01:49:08;;;;;;;5.87;3.00;;;3.60;99.90;;;;;;5072076;28;20628;-82
2024/01/22 01:51:35;;;;;;;7.13;3.03;;;3.70;99.90;;;;;;5071647;28;20209;-82
2024/01/22 01:54:04;;;;;;;5.10;2.77;;;3.70;99.90;;;;;;5070769;28;20735;-82
2024/01/22 01:56:30;;;;;;;4.33;2.90;;;3.80;99.90;;;;;;5071105;28;20177;-82
2024/01/22 01:58:56;;;;;;;4.53;2.87;;;3.80;99.90;;;;;;5070681;28;20188;-82
2024/01/22 02:01:22;;;;;;;5.30;2.87;;;3.80;99.90;;;;;;5070495;28;20181;-82
2024/01/22 02:03:47;;;;;;;4.30;2.40;;;3.70;99.90;;;;;;5070823;28;20295;-83
2024/01/22 02:06:13;;;;;;;3.50;2.60;;;3.60;99.90;;;;;;5072356;28;20272;-82
2024/01/22 02:08:39;;;;;;;5.03;3.27;;;3.70;99.90;;;;;;5070793;28;20184;-82
2024/01/22 02:11:05;;;;;;;4.67;2.70;;;3.80;99.90;;;;;;5071724;28;20196;-82
2024/01/22 02:13:31;;;;;;;4.17;2.60;;;3.80;99.90;;;;;;5070922;28;20183;-82
2024/01/22 02:15:57;;;;;;;4.53;3.10;;;3.80;99.90;;;;;;5072111;28;20169;-82
2024/01/22 02:18:22;;;;;;;3.23;2.53;;;3.80;99.90;;;;;;5070749;28;20173;-82
2024/01/22 02:20:48;;;;;;;4.13;2.80;;;3.80;99.90;;;;;;5070062;28;20204;-82
2024/01/22 02:23:13;;;;;;;4.53;2.50;;;3.90;99.90;;;;;;5071765;28;20204;-82
2024/01/22 02:25:39;;;;;;;4.73;2.33;;;4.00;99.90;;;;;;5070879;28;20182;-82
2024/01/22 02:28:05;;;;;;;3.33;2.50;;;4.10;99.90;;;;;;5070902;28;20179;-82
2024/01/22 02:30:30;;;;;;;4.47;2.80;;;4.10;99.90;;;;;;5070137;28;20193;-83
2024/01/22 02:32:56;;;;;;;3.17;2.50;;;4.10;99.90;;;;;;5071870;28;20177;-82
2024/01/22 02:35:21;;;;;;;4.63;2.40;;;4.10;99.90;;;;;;5070635;28;20177;-82
2024/01/22 02:37:47;;;;;;;5.23;2.37;;;4.20;99.90;;;;;;5070403;28;20243;-82
2024/01/22 02:40:13;;;;;;;4.77;2.80;;;4.10;99.90;;;;;;5071502;28;20205;-82
2024/01/22 02:42:39;;;;;;;3.63;2.60;;;4.10;99.90;;;;;;5073105;28;20191;-82
2024/01/22 02:45:06;;;;;;;7.80;2.70;;;4.10;99.90;;;;;;5074308;28;20676;-82
2024/01/22 02:47:32;;;;;;;5.60;2.50;;;4.10;99.90;;;;;;5075729;28;20175;-83
2024/01/22 02:49:57;;;;;;;4.33;2.80;;;4.00;99.90;;;;;;5075168;28;20280;-82
2024/01/22 02:52:23;;;;;;;5.90;3.03;;;4.00;99.90;;;;;;5075118;28;20173;-83
2024/01/22 02:54:48;;;;;;;3.40;2.40;;;3.90;99.90;;;;;;5075556;28;20173;-83
2024/01/22 02:57:14;;;;;;;4.63;2.80;;;4.00;99.90;;;;;;5075534;28;20187;-83
2024/01/22 02:59:43;;;;;;;4.07;2.77;;;3.90;99.90;;;;;;5073992;28;20227;-82
2024/01/22 03:02:10;;;;;;;3.73;2.40;;;3.90;99.90;;;;;;5074965;28;20291;-83
2024/01/22 03:04:35;;;;;;;4.77;2.83;;;3.90;99.90;;;;;;5073859;28;20299;-83
2024/01/22 03:07:01;;;;;;;4.60;2.87;;;3.90;99.90;;;;;;5074864;28;20176;-83
2024/01/22 03:09:27;;;;;;;4.50;2.60;;;3.90;99.90;;;;;;5073886;28;20575;-82
2024/01/22 03:11:52;;;;;;;4.33;3.03;;;3.90;99.90;;;;;;5073696;28;20181;-82
2024/01/22 03:14:18;;;;;;;4.63;2.50;;;4.00;99.90;;;;;;5073890;28;20181;-83
2024/01/22 03:16:43;;;;;;;4.90;2.80;;;3.90;99.90;;;;;;5073932;28;20181;-83
2024/01/22 03:19:09;;;;;;;4.20;2.87;;;4.00;99.90;;;;;;5074882;28;20173;-83
2024/01/22 03:21:34;;;;;;;5.13;3.03;;;3.90;99.90;;;;;;5074313;28;20273;-83
2024/01/22 03:24:00;;;;;;;3.70;2.63;;;4.00;99.90;;;;;;5075058;28;20216;-83
2024/01/22 03:26:26;;;;;;;4.00;2.30;;;4.00;99.90;;;;;;5073634;28;20528;-83
2024/01/22 03:28:52;;;;;;;5.07;2.73;;;4.00;99.90;;;;;;5074891;28;20178;-82
2024/01/22 03:31:20;;;;;;;4.90;2.93;;;4.10;99.90;;;;;;5072889;28;20185;-83
2024/01/22 03:33:46;;;;;;;4.00;2.93;;;3.90;99.90;;;;;;5073481;28;20177;-83
2024/01/22 03:36:11;;;;;;;4.53;2.87;;;4.00;99.90;;;;;;5073246;28;20580;-82
2024/01/22 03:38:38;;;;;;;4.93;2.87;;;3.90;99.90;;;;;;5074749;28;20196;-82
2024/01/22 03:41:04;;;;;;;2.93;2.10;;;4.00;99.90;;;;;;5074279;28;20204;-82
2024/01/22 03:43:29;;;;;;;4.53;2.93;;;4.00;99.90;;;;;;5073199;28;20200;-82
2024/01/22 03:45:55;;;;;;;3.43;2.47;;;4.00;99.90;;;;;;5073311;28;20267;-82
2024/01/22 03:48:20;;;;;;;4.77;2.83;;;4.10;99.90;;;;;;5074485;28;20654;-83
2024/01/22 03:50:46;;;;;;;4.07;2.33;;;4.20;99.90;;;;;;5072450;28;20578;-82
2024/01/22 03:53:11;;;;;;;2.70;2.20;;;4.40;99.90;;;;;;5074137;28;20173;-83
2024/01/22 03:55:37;;;;;;;2.60;2.03;;;4.30;99.90;;;;;;5072439;28;20169;-82
2024/01/22 03:58:03;;;;;;;3.53;1.93;;;4.50;99.90;;;;;;5074238;28;20177;-82
2024/01/22 04:00:28;;;;;;;4.47;2.40;;;4.50;99.90;;;;;;5072391;28;20204;-82
2024/01/22 04:02:54;;;;;;;4.33;2.07;;;4.50;99.90;;;;;;5074238;28;20222;-82
2024/01/22 04:05:19;;;;;;;2.80;1.80;;;4.60;99.90;;;;;;5074322;28;20172;-82
2024/01/22 04:07:45;;;;;;;4.23;2.37;;;4.60;99.90;;;;;;5073094;28;20261;-83
2024/01/22 04:10:10;;;;;;;2.17;1.70;;;4.70;99.90;;;;;;5073786;28;20284;-82
2024/01/22 04:12:37;;;;;;;2.73;2.00;;;4.70;99.90;;;;;;5074095;28;20173;-83
2024/01/22 04:15:04;;;;;;;2.17;1.73;;;4.70;99.90;;;;;;5074026;28;20211;-83
2024/01/22 04:17:30;;;;;;;2.67;2.00;;;4.80;99.90;;;;;;5073939;28;20182;-82
2024/01/22 04:19:55;;;;;;;3.63;1.80;;;4.90;99.90;;;;;;5072209;28;20741;-82
2024/01/22 04:22:21;;;;;;;2.17;1.57;;;4.90;99.90;;;;;;5073525;28;20169;-82
2024/01/22 04:24:46;;;;;;;2.47;1.97;;;5.00;99.90;;;;;;5072491;28;20210;-83
2024/01/22 04:27:13;;;;;;;2.23;1.50;;;5.00;99.90;;;;;;5073936;28;20617;-83
2024/01/22 04:29:38;;;;;;;5.10;1.60;;;5.10;99.90;;;;;;5072458;28;20192;-82
2024/01/22 04:32:04;;;;;;;2.17;1.70;;;5.10;99.90;;;;;;5072621;28;20300;-83
2024/01/22 04:34:30;;;;;;;3.10;1.67;;;5.20;99.90;;;;;;5072298;28;20181;-82
2024/01/22 04:36:55;;;;;;;3.60;1.80;;;5.10;99.90;;;;;;5072518;28;20231;-83
2024/01/22 04:39:22;;;;;;;2.27;1.90;;;5.10;99.90;;;;;;5073626;28;20290;-82
2024/01/22 04:41:48;;;;;;;2.63;1.83;;;5.10;99.90;;;;;;5071917;28;20174;-83
2024/01/22 04:44:14;;;;;;;2.27;1.67;;;5.00;99.90;;;;;;5072250;28;20205;-82
2024/01/22 04:46:39;;;;;;;2.43;1.70;;;5.20;99.90;;;;;;5072254;28;20193;-83
2024/01/22 04:49:05;;;;;;;3.47;1.73;;;5.30;99.90;;;;;;5073124;28;20176;-82
2024/01/22 04:51:30;;;;;;;3.30;1.70;;;5.50;99.90;;;;;;5072901;28;20223;-82
2024/01/22 04:53:56;;;;;;;2.57;1.70;;;5.40;99.90;;;;;;5073306;28;20260;-83
2024/01/22 04:56:21;;;;;;;3.87;1.67;;;5.50;99.90;;;;;;5067570;28;20220;-82
2024/01/22 04:58:47;;;;;;;2.53;1.70;;;5.50;99.90;;;;;;5051378;28;20668;-82
2024/01/22 05:01:12;;;;;;;2.27;1.40;;;5.50;99.90;;;;;;5051981;28;20214;-79
2024/01/22 05:03:38;;;;;;;1.90;1.50;;;5.50;99.90;;;;;;5052280;28;20259;-81
2024/01/22 05:06:04;;;;;;;4.13;2.03;;;5.40;99.90;;;;;;5051183;28;20345;-80
2024/01/22 05:08:29;;;;;;;1.87;1.40;;;5.40;99.90;;;;;;5051782;28;20656;-80
2024/01/22 05:10:55;;;;;;;2.23;1.50;;;5.40;99.90;;;;;;5050828;28;20200;-80
2024/01/22 05:13:22;;;;;;;4.43;1.70;;;5.40;99.90;;;;;;5051455;28;20181;-80
2024/01/22 05:15:48;;;;;;;2.37;1.80;;;5.50;99.90;;;;;;5052995;28;20207;-79
2024/01/22 05:18:13;;;;;;;3.07;1.57;;;5.60;99.90;;;;;;5051256;28;20211;-79
2024/01/22 05:20:39;;;;;;;3.37;1.60;;;5.60;99.90;;;;;;5052193;28;20198;-79
2024/01/22 05:23:05;;;;;;;3.07;1.80;;;5.60;99.90;;;;;;5052575;28;20709;-79
2024/01/22 05:25:31;;;;;;;2.13;1.40;;;5.70;99.90;;;;;;5051339;28;20170;-79
2024/01/22 05:27:57;;;;;;;1.60;1.40;;;5.70;99.90;;;;;;5052487;28;20184;-79
2024/01/22 05:30:23;;;;;;;2.30;1.60;;;5.70;99.90;;;;;;5050587;28;20195;-79
2024/01/22 05:32:49;;;;;;;2.53;1.50;;;5.70;99.90;;;;;;5050987;28;20223;-79
2024/01/22 05:35:15;;;;;;;1.40;1.30;;;5.70;99.90;;;;;;5052372;28;20170;-81
2024/01/22 05:37:41;;;;;;;2.30;1.50;;;5.70;99.90;;;;;;5051119;28;20174;-79
2024/01/22 05:40:13;;;;;;;2.53;1.33;;;5.70;99.90;;;;;;5052284;28;20223;-79
2024/01/22 05:42:39;;;;;;;1.50;1.20;;;5.90;99.90;;;;;;5050937;28;20207;-79
2024/01/22 05:45:05;;;;;;;1.30;1.20;;;5.90;99.90;;;;;;5050843;28;20641;-79
2024/01/22 05:47:31;;;;;;;2.00;1.40;;;5.80;99.90;;;;;;5051905;28;20660;-79
2024/01/22 05:49:56;;;;;;;1.73;1.30;;;5.90;99.90;;;;;;5050641;28;20197;-79
2024/01/22 05:52:22;;;;;;;1.90;1.20;;;5.80;99.90;;;;;;5050519;28;20175;-79
2024/01/22 05:54:48;;;;;;;1.93;1.30;;;5.80;99.90;;;;;;5067587;28;20184;-79
2024/01/22 05:57:13;;;;;;;2.73;1.50;;;5.70;99.90;;;;;;5052087;28;20207;-79
2024/01/22 05:59:39;;;;;;;1.83;1.30;;;5.80;99.90;;;;;;5066960;28;20208;-80
2024/01/22 06:02:05;;;;;;;2.20;1.50;;;5.90;99.90;;;;;;5051493;28;20601;-79
2024/01/22 06:04:31;;;;;;;1.77;1.07;;;5.80;99.90;;;;;;5052166;28;20236;-79
2024/01/22 06:06:57;;;;;;;1.40;1.30;;;5.80;99.90;;;;;;5050821;28;20172;-79
2024/01/22 06:09:22;;;;;;;1.87;1.30;;;5.80;99.90;;;;;;5067410;28;20274;-80
2024/01/22 06:11:48;;;;;;;2.10;1.40;;;5.70;99.90;;;;;;5051706;28;20204;-81
2024/01/22 06:14:14;;;;;;;1.90;1.40;;;5.60;99.90;;;;;;5051817;28;20173;-79
2024/01/22 06:16:39;;;;;;;1.93;1.60;;;5.60;99.90;;;;;;5051798;28;20625;-81
2024/01/22 06:19:05;;;;;;;4.60;1.60;;;5.50;99.90;;;;;;5071689;28;20227;-77
2024/01/22 06:21:30;;;;;;;2.03;1.30;;;5.50;99.90;;;;;;5055541;28;20664;-79
2024/01/22 06:23:57;;;;;;;3.77;1.50;;;5.50;99.90;;;;;;5056129;28;20211;-77
2024/01/22 06:26:23;;;;;;;2.07;1.60;;;5.40;99.90;;;;;;5056598;28;20180;-77
2024/01/22 06:28:49;;;;;;;1.80;1.30;;;5.30;99.90;;;;;;5056225;28;20179;-80
2024/01/22 06:31:15;;;;;;;2.03;1.40;;;5.30;99.90;;;;;;5055370;28;20203;-77
2024/01/22 06:33:40;;;;;;;1.83;1.40;;;5.40;99.90;;;;;;5054669;28;20262;-78
2024/01/22 06:36:06;;;;;;;3.13;1.47;;;5.40;99.90;;;;;;5054969;28;20185;-81
2024/01/22 06:38:32;;;;;;;4.90;1.80;;;5.30;99.90;;;;;;5056124;28;20560;-79
2024/01/22 06:40:58;;;;;;;2.73;1.47;;;5.30;99.90;;;;;;5053966;28;20232;-78
2024/01/22 06:43:23;;;;;;;1.90;1.40;;;5.30;99.90;;;;;;5055993;28;20198;-78
2024/01/22 06:45:49;;;;;;;1.70;1.40;;;5.30;99.90;;;;;;5054241;28;20176;-80
2024/01/22 06:48:15;;;;;;;2.07;1.60;;;5.30;99.90;;;;;;5055620;28;20288;-78
2024/01/22 06:50:41;;;;;;;2.73;1.60;;;5.20;99.90;;;;;;5054177;28;20192;-81
2024/01/22 06:53:06;;;;;;;3.83;1.70;;;5.20;99.90;;;;;;5056186;28;20186;-80
2024/01/22 06:55:32;;;;;;;1.93;1.53;;;5.20;99.90;;;;;;5054407;28;20531;-80
2024/01/22 06:57:57;;;;;;;1.87;1.50;;;5.20;99.90;;;;;;5054215;28;20557;-81
2024/01/22 07:00:23;;;;;;;1.87;1.63;;;5.20;99.90;;;;;;5054503;28;20215;-79
2024/01/22 07:02:51;;;;;;;1.77;1.50;;;5.20;99.90;;;;;;5053977;28;20235;-79
2024/01/22 07:05:17;;;;;;;2.20;1.53;;;5.20;99.90;;;;;;5055239;28;20186;-79
2024/01/22 07:07:42;;;;;;;2.27;1.60;;;5.30;99.90;;;;;;5055212;28;20188;-78
2024/01/22 07:10:09;;;;;;;2.17;1.40;;;5.20;99.90;;;;;;5054564;28;20630;-77
2024/01/22 07:12:35;;;;;;;6.60;4.33;;;5.10;99.90;;;;;;5053791;28;20220;-80
2024/01/22 07:15:01;;;;;;;2.47;1.70;;;5.10;99.90;;;;;;5053829;28;20186;-80
2024/01/22 07:17:28;;;;;;;1.90;1.40;;;5.10;99.90;;;;;;5055270;28;20254;-80
2024/01/22 07:19:54;;;;;;;2.10;1.60;;;5.20;99.90;;;;;;5053672;28;20205;-81
2024/01/22 07:22:20;;;;;;;6.73;1.43;;;5.20;99.90;;;;;;5054573;28;20179;-80
2024/01/22 07:24:45;;;;;;;2.67;1.47;;;5.20;99.90;;;;;;5055027;28;20336;-80
2024/01/22 07:27:11;;;;;;;1.90;1.50;;;5.20;99.90;;;;;;5053743;28;20182;-79
2024/01/22 07:29:36;;;;;;;3.17;1.40;;;5.20;99.90;;;;;;5054253;28;20184;-80
2024/01/22 07:32:02;;;;;;;2.97;1.57;;;5.20;99.90;;;;;;5054835;28;20256;-80
2024/01/22 07:34:28;;;;;;;1.83;1.30;;;5.10;99.90;;;;;;5055141;28;20194;-79
2024/01/22 07:36:53;;;;;;;2.40;1.40;;;5.10;99.90;;;;;;5053730;28;20179;-80
2024/01/22 07:39:20;;;;;;;2.63;1.40;;;5.20;99.90;;;;;;5053504;28;20198;-80
2024/01/22 07:41:45;;;;;;;2.10;1.23;;;5.30;99.90;;;;;;5053047;28;20210;-79
2024/01/22 07:44:11;;;;;;;2.73;1.40;;;5.30;99.90;;;;;;5053130;28;20237;-79
2024/01/22 07:46:36;;;;;;;4.40;1.30;;;5.30;99.90;;;;;;5053109;28;20181;-80
2024/01/22 07:49:02;;;;;;;2.77;1.47;;;5.40;99.90;;;;;;5054440;28;20176;-79
2024/01/22 07:51:29;;;;;;;2.33;1.50;;;5.50;99.90;;;;;;5053833;28;20236;-79
2024/01/22 07:53:54;;;;;;;2.03;1.37;;;5.50;99.90;;;;;;5069937;28;20176;-79
2024/01/22 07:56:20;;;;;;;3.00;1.40;;;5.50;99.90;;;;;;5053271;28;20187;-80
2024/01/22 07:58:46;;;;;;;2.13;1.43;;;5.40;99.90;;;;;;5052948;28;20178;-79
2024/01/22 08:01:11;;;;;;;1.50;1.40;;;5.40;99.90;;;;;;5052123;28;20266;-80
2024/01/22 08:03:38;;;;;;;1.70;1.30;;;5.40;99.90;;;;;;5053857;28;20242;-80
2024/01/22 08:06:04;;;;;;;1.33;1.23;;;5.40;99.90;;;;;;5069599;28;20175;-79
2024/01/22 08:08:30;;;;;;;2.37;1.40;;;5.40;99.90;;;;;;5054094;28;20173;-79
2024/01/22 08:10:56;;;;;;;1.80;1.40;;;5.40;99.90;;;;;;5052136;28;20197;-80
2024/01/22 08:13:22;;;;;;;3.20;1.50;;;5.40;99.90;;;;;;5052790;28;20182;-80
2024/01/22 08:15:48;;;;;;;1.80;1.30;;;5.30;99.90;;;;;;5052676;28;20176;-79
2024/01/22 08:18:14;;;;;;;1.50;1.37;;;5.40;99.90;;;;;;5052837;28;20229;-80
2024/01/22 08:20:40;;;;;;;2.67;1.40;;;5.40;99.90;;;;;;5051989;28;20194;-79
2024/01/22 08:23:07;;;;;;;2.63;1.40;;;5.40;99.90;;;;;;5053973;28;20206;-79
2024/01/22 08:25:32;;;;;;;1.93;1.40;;;5.40;99.90;;;;;;5052500;28;20181;-79
2024/01/22 08:27:58;;;;;;;1.50;1.33;;;5.40;99.90;;;;;;5052409;28;20173;-79
2024/01/22 08:30:25;;;;;;;2.43;1.37;;;5.40;99.90;;;;;;5053167;28;20193;-81
2024/01/22 08:32:51;;;;;;;1.70;1.30;;;5.40;99.90;;;;;;5052350;28;20227;-79
2024/01/22 08:35:18;;;;;;;2.20;1.20;;;5.40;99.90;;;;;;5052318;28;20207;-80
2024/01/22 08:37:47;;;;;;;2.40;1.53;;;5.40;99.90;;;;;;5053537;28;20171;-79
2024/01/22 08:40:17;;;;;;;2.93;1.50;;;5.40;99.90;;;;;;5052160;28;20247;-79
2024/01/22 08:42:45;;;;;;;3.57;1.33;;;5.40;99.90;;;;;;5053429;28;20173;-80
2024/01/22 08:45:10;;;;;;;2.60;1.30;;;5.40;99.90;;;;;;5053614;28;20187;-79
2024/01/22 08:47:36;;;;;;;1.80;1.43;;;5.30;99.90;;;;;;5053454;28;20168;-80
2024/01/22 08:50:01;;;;;;;2.03;1.23;;;5.30;99.90;;;;;;5051824;28;20190;-79
2024/01/22 08:52:27;;;;;;;1.77;1.40;;;5.40;99.90;;;;;;5053118;28;20261;-79
2024/01/22 08:54:52;;;;;;;2.80;1.50;;;5.40;99.90;;;;;;5051673;28;20170;-79
2024/01/22 08:57:19;;;;;;;2.13;1.40;;;5.40;99.90;;;;;;5051835;28;20184;-79
2024/01/22 08:59:44;;;;;;;2.07;1.20;;;5.40;99.90;;;;;;5052812;28;20695;-79
2024/01/22 09:02:10;;;;;;;3.87;1.40;;;5.40;99.90;;;;;;5052721;28;20170;-79
2024/01/22 09:04:35;;;;;;;1.83;1.50;;;5.40;99.90;;;;;;5052939;28;20202;-80
2024/01/22 09:07:01;;;;;;;1.73;1.30;;;5.50;99.90;;;;;;5051726;28;20180;-81
2024/01/22 09:09:27;;;;;;;1.77;1.30;;;5.50;99.90;;;;;;5051262;28;20248;-79
2024/01/22 09:11:52;;;;;;;1.47;1.20;;;5.50;99.90;;;;;;5052696;28;20175;-79
2024/01/22 09:14:18;;;;;;;1.83;1.10;;;5.70;99.90;;;;;;5051450;28;20186;-79
2024/01/22 09:16:44;;;;;;;1.30;1.20;;;5.60;99.90;;;;;;5051617;28;20181;-79
2024/01/22 09:19:09;;;;;;;2.67;1.40;;;5.60;99.90;;;;;;5051386;28;20190;-79
2024/01/22 09:21:35;;;;;;;2.57;1.20;;;5.60;99.90;;;;;;5050739;28;20183;-78
2024/01/22 09:24:01;;;;;;;1.57;1.30;;;5.60;99.90;;;;;;5051129;28;20203;-79
2024/01/22 09:26:27;;;;;;;2.10;1.30;;;5.60;99.90;;;;;;5051669;28;20226;-79
2024/01/22 09:28:53;;;;;;;2.47;1.30;;;5.60;99.90;;;;;;5067754;28;20202;-79
2024/01/22 09:31:19;;;;;;;2.90;1.70;;;5.70;99.90;;;;;;5071090;28;20185;-79
2024/01/22 09:33:45;;;;;;;2.33;1.60;;;5.80;99.90;;;;;;5086183;28;20647;-79
2024/01/22 09:36:11;;;;;;;3.40;1.50;;;5.80;99.90;;;;;;5085926;28;20217;-78
2024/01/22 09:38:40;;;;;;;2.07;1.70;;;5.80;99.90;;;;;;5072416;28;20179;-78
2024/01/22 09:41:06;;;;;;;2.77;1.70;;;5.90;99.90;;;;;;5070586;28;20195;-79
2024/01/22 09:43:32;;;;;;;3.17;1.90;;;6.00;99.90;;;;;;5072434;28;20207;-79
2024/01/22 09:45:58;;;;;;;2.73;1.43;;;6.00;99.90;;;;;;5070928;28;20179;-78
2024/01/22 09:48:24;;;;;;;1.90;1.40;;;6.10;99.90;;;;;;5070809;28;20181;-79
2024/01/22 09:50:51;;;;;;;2.30;1.60;;;6.10;99.90;;;;;;5070237;28;20192;-79
2024/01/22 09:53:19;;;;;;;2.00;1.50;;;6.10;99.90;;;;;;5071867;28;20186;-78
2024/01/22 09:55:46;;;;;;;1.77;1.60;;;6.20;99.90;;;;;;5070928;28;20195;-79
2024/01/22 09:58:18;;;;;;;2.57;1.60;;;6.20;99.90;;;;;;5070862;28;20181;-78
2024/01/22 10:00:46;;;;;;;2.23;1.60;;;6.30;99.90;;;;;;5069898;28;20219;-79
2024/01/22 10:03:12;;;;;;;2.47;1.60;;;6.30;99.90;;;;;;5070611;28;20621;-78
2024/01/22 10:05:38;;;;;;;1.67;1.57;;;6.40;99.90;;;;;;5070681;28;20172;-78
2024/01/22 10:08:04;;;;;;;3.43;1.50;;;6.40;99.90;;;;;;5072011;28;20193;-79
2024/01/22 10:10:30;;;;;;;2.73;2.23;;;6.40;99.90;;;;;;5071306;28;20200;-79
2024/01/22 10:12:59;;;;;;;2.17;1.70;;;6.50;99.90;;;;;;5070582;28;20180;-79
2024/01/22 10:15:27;;;;;;;2.53;1.83;;;6.50;99.90;;;;;;5071828;28;20679;-81
2024/01/22 10:17:52;;;;;;;2.47;1.70;;;6.50;99.90;;;;;;5071697;28;20199;-79
2024/01/22 10:20:22;;;;;;;2.77;1.50;;;6.50;99.90;;;;;;5070043;28;20189;-79
2024/01/22 10:22:48;;;;;;;2.17;1.53;;;6.50;99.90;;;;;;5072014;28;20206;-79
2024/01/22 10:25:17;;;;;;;2.17;1.63;;;6.60;99.90;;;;;;5071905;28;20172;-80
2024/01/22 10:27:42;;;;;;;2.10;1.60;;;6.60;99.90;;;;;;5071844;28;20168;-79
2024/01/22 10:30:12;;;;;;;2.63;1.80;;;6.70;99.90;;;;;;5069735;28;20268;-78
2024/01/22 10:32:38;;;;;;;4.23;1.60;;;6.60;99.90;;;;;;5071711;28;20173;-79
2024/01/22 10:35:04;;;;;;;2.80;1.70;;;6.70;99.90;;;;;;5071289;28;20543;-80
2024/01/22 10:37:30;;;;;;;2.97;1.70;;;6.60;99.90;;;;;;5071755;28;20173;-80
2024/01/22 10:40:03;;;;;;;3.57;1.90;;;6.60;99.90;;;;;;5071421;28;20203;-78
2024/01/22 10:42:29;;;;;;;3.90;1.97;;;6.60;99.90;;;;;;5069999;28;20533;-79
2024/01/22 10:44:56;;;;;;;1.97;1.70;;;6.60;99.90;;;;;;5071269;28;20757;-79
2024/01/22 10:47:22;;;;;;;2.97;2.00;;;6.70;99.90;;;;;;5071293;28;20229;-78
2024/01/22 10:49:48;;;;;;;2.97;1.60;;;6.70;99.90;;;;;;5071323;28;20187;-79
2024/01/22 10:52:14;;;;;;;4.17;1.90;;;6.70;99.90;;;;;;5069684;28;20173;-79
2024/01/22 10:54:40;;;;;;;4.80;2.10;;;6.70;99.90;;;;;;5071766;28;20641;-79
2024/01/22 10:57:22;;;;;;;2.80;1.77;;;6.60;99.90;;;;;;5069360;28;20185;-80
2024/01/22 10:59:48;;;;;;;2.73;1.80;;;6.70;99.90;;;;;;5062529;28;20213;-80
2024/01/22 11:02:22;;;;;;;2.00;1.80;;;6.70;99.90;;;;;;5067535;28;20181;-79
2024/01/22 11:04:52;;;;;;;2.07;1.60;;;6.80;99.90;;;;;;5069532;28;20195;-80
2024/01/22 11:07:23;;;;;;;2.73;1.90;;;6.70;99.90;;;;;;5075466;28;20184;-80
2024/01/22 11:09:50;;;;;;;2.20;1.80;;;6.70;99.90;;;;;;5075088;28;20196;-80
2024/01/22 11:12:19;;;;;;;4.00;1.83;;;6.70;99.90;;;;;;5075122;28;20225;-80
2024/01/22 11:14:45;;;;;;;2.20;1.70;;;6.70;99.90;;;;;;5075561;28;20184;-80
2024/01/22 11:17:11;;;;;;;2.70;1.60;;;6.70;99.90;;;;;;5057291;28;20708;-80
2024/01/22 11:19:38;;;;;;;2.17;1.80;;;6.70;99.90;;;;;;5055151;28;20669;-80
2024/01/22 11:22:23;;;;;;;2.27;1.80;;;6.80;99.90;;;;;;5053456;28;20186;-81
2024/01/22 11:25:12;;;;;;;2.10;1.70;;;6.80;99.90;;;;;;5055132;28;20265;-81
2024/01/22 11:27:42;;;;;;;2.00;1.80;;;6.90;99.90;;;;;;5072544;28;20177;-84
2024/01/22 11:30:23;;;;;;;3.43;1.60;;;6.90;99.90;;;;;;5054735;28;20196;-80
2024/01/22 11:32:49;;;;;;;2.17;1.67;;;6.90;99.90;;;;;;5057209;28;20544;-81
2024/01/22 11:35:37;;;;;;;3.37;1.90;;;6.80;99.90;;;;;;5054970;28;20181;-81
2024/01/22 11:38:04;;;;;;;2.67;1.60;;;6.80;99.90;;;;;;5055856;28;20188;-84
2024/01/22 11:40:48;;;;;;;2.97;1.60;;;6.70;99.90;;;;;;5055603;28;20197;-80
2024/01/22 11:43:16;;;;;;;2.40;1.70;;;6.70;99.90;;;;;;5055350;28;20197;-78
2024/01/22 11:45:43;;;;;;;3.77;1.87;;;6.70;99.90;;;;;;5054261;28;20177;-80
2024/01/22 11:48:20;;;;;;;2.40;1.77;;;6.70;99.90;;;;;;5054951;28;20250;-77
2024/01/22 11:51:04;;;;;;;2.63;1.67;;;6.80;99.90;;;;;;5054733;28;20251;-80
2024/01/22 11:53:30;;;;;;;3.07;1.63;;;6.80;99.90;;;;;;5055495;28;20252;-81
2024/01/22 11:56:05;;;;;;;1.50;1.40;;;6.80;99.90;;;;;;5054629;28;20267;-80
2024/01/22 11:58:32;;;;;;;2.70;1.33;;;6.80;99.90;;;;;;5070877;28;20633;-80
2024/01/22 12:01:05;;;;;;;2.10;1.40;;;6.80;99.90;;;;;;5053548;28;20273;-80
2024/01/22 12:03:30;;;;;;;1.70;1.60;;;6.80;99.90;;;;;;5053993;28;20212;-80
2024/01/22 12:06:00;;;;;;;1.70;1.40;;;6.80;99.90;;;;;;5053854;28;20177;-80
2024/01/22 12:08:26;;;;;;;2.47;1.50;;;6.80;99.90;;;;;;5055302;28;20181;-80
2024/01/22 12:10:55;;;;;;;1.80;1.40;;;6.90;99.90;;;;;;5054790;28;20194;-80
2024/01/22 12:13:22;;;;;;;2.13;1.50;;;6.80;99.90;;;;;;5055810;28;20226;-81
2024/01/22 12:15:47;;;;;;;2.50;1.50;;;6.80;99.90;;;;;;5053942;28;20170;-80
2024/01/22 12:18:20;;;;;;;2.70;1.50;;;6.90;99.90;;;;;;5055227;28;20181;-81
2024/01/22 12:20:46;;;;;;;2.83;1.80;;;6.90;99.90;;;;;;5053214;28;20209;-80
2024/01/22 12:23:12;;;;;;;1.93;1.40;;;6.80;99.90;;;;;;5053794;28;20202;-80
2024/01/22 12:25:40;;;;;;;1.93;1.73;;;6.90;99.90;;;;;;5054973;28;20622;-80
2024/01/22 12:28:11;;;;;;;1.93;1.60;;;6.90;99.90;;;;;;5053968;28;20645;-80
2024/01/22 12:30:38;;;;;;;1.63;1.37;;;6.80;99.90;;;;;;5054344;28;20197;-80
2024/01/22 12:33:03;;;;;;;2.57;1.70;;;6.80;99.90;;;;;;5054918;28;20170;-80
2024/01/22 12:35:29;;;;;;;1.90;1.53;;;6.80;99.90;;;;;;5053675;28;20177;-80
2024/01/22 12:37:55;;;;;;;1.93;1.60;;;6.80;99.90;;;;;;5053724;28;20188;-80
2024/01/22 12:40:23;;;;;;;1.67;1.40;;;6.80;99.90;;;;;;5054316;28;20196;-80
2024/01/22 12:42:50;;;;;;;1.60;1.50;;;6.80;99.90;;;;;;5053554;28;20288;-80
2024/01/22 12:45:23;;;;;;;1.87;1.30;;;6.80;99.90;;;;;;5053255;28;20180;-80
2024/01/22 12:47:49;;;;;;;2.63;1.53;;;6.80;99.90;;;;;;5054828;28;20173;-80
2024/01/22 12:50:18;;;;;;;1.87;1.60;;;6.80;99.90;;;;;;5052880;28;20262;-80
2024/01/22 12:52:44;;;;;;;2.07;1.50;;;6.80;99.90;;;;;;5070119;28;20174;-82
2024/01/22 12:55:16;;;;;;;1.63;1.33;;;6.80;99.90;;;;;;5053317;28;20177;-80